createdAt,value
2018-08-16T00:01:28.402Z,15.40
2018-08-16T00:03:57.962Z,15.40
2018-08-16T00:06:27.505Z,15.40
2018-08-16T00:08:57.269Z,15.40
2018-08-16T00:11:26.669Z,15.30
2018-08-16T00:13:56.088Z,15.30
2018-08-16T00:16:25.854Z,15.30
2018-08-16T00:18:55.196Z,15.20
2018-08-16T00:21:24.945Z,15.20
2018-08-16T00:23:54.617Z,15.20
2018-08-16T00:26:24.105Z,15.20
2018-08-16T00:28:53.568Z,15.20
2018-08-16T00:31:23.347Z,15.20
2018-08-16T00:33:53.316Z,15.20
2018-08-16T00:36:23.059Z,15.20
2018-08-16T00:38:53.089Z,15.10
2018-08-16T00:41:22.873Z,15.20
2018-08-16T00:43:52.520Z,15.20
2018-08-16T00:46:22.580Z,15.10
2018-08-16T00:48:52.286Z,15.10
2018-08-16T00:51:22.002Z,15.00
2018-08-16T00:53:51.928Z,15.00
2018-08-16T00:56:21.511Z,15.00
2018-08-16T00:58:51.192Z,15.00
2018-08-16T01:01:21.089Z,15.00
2018-08-16T01:03:50.847Z,15.00
2018-08-16T01:06:20.371Z,15.00
2018-08-16T01:08:50.236Z,15.00
2018-08-16T01:11:19.742Z,15.00
2018-08-16T01:13:49.156Z,15.00
2018-08-16T01:16:19.763Z,14.90
2018-08-16T01:18:49.406Z,14.90
2018-08-16T01:21:19.168Z,15.00
2018-08-16T01:23:49.156Z,14.90
2018-08-16T01:26:18.556Z,14.80
2018-08-16T01:28:48.114Z,14.80
2018-08-16T01:31:24.276Z,14.80
2018-08-16T01:33:53.793Z,14.80
2018-08-16T01:36:23.547Z,14.80
2018-08-16T01:38:53.491Z,14.80
2018-08-16T01:41:23.246Z,14.80
2018-08-16T01:43:52.853Z,14.80
2018-08-16T01:46:23.044Z,14.70
2018-08-16T01:48:52.821Z,14.70
2018-08-16T01:51:22.522Z,14.70
2018-08-16T01:53:52.301Z,14.70
2018-08-16T01:56:22.002Z,14.70
2018-08-16T01:58:51.590Z,14.70
2018-08-16T02:01:21.561Z,14.70
2018-08-16T02:03:51.220Z,14.70
2018-08-16T02:06:20.905Z,14.70
2018-08-16T02:08:50.952Z,14.70
2018-08-16T02:11:20.657Z,14.70
2018-08-16T02:13:50.299Z,14.70
2018-08-16T02:16:20.388Z,14.70
2018-08-16T02:18:49.981Z,14.70
2018-08-16T02:21:19.422Z,14.70
2018-08-16T02:23:49.146Z,14.70
2018-08-16T02:26:18.896Z,14.70
2018-08-16T02:28:48.305Z,14.70
2018-08-16T02:31:17.959Z,14.60
2018-08-16T02:33:47.451Z,14.60
2018-08-16T02:36:16.941Z,14.60
2018-08-16T02:38:46.692Z,14.60
2018-08-16T02:41:16.567Z,14.60
2018-08-16T02:43:46.109Z,14.60
2018-08-16T02:46:16.070Z,14.50
2018-08-16T02:48:45.630Z,14.50
2018-08-16T02:51:15.293Z,14.50
2018-08-16T02:53:45.300Z,14.50
2018-08-16T02:56:14.808Z,14.50
2018-08-16T02:58:44.520Z,14.50
2018-08-16T03:01:14.340Z,14.50
2018-08-16T03:03:43.703Z,14.50
2018-08-16T03:06:13.239Z,14.50
2018-08-16T03:08:43.060Z,14.50
2018-08-16T03:11:18.710Z,14.50
2018-08-16T03:13:48.480Z,14.60
2018-08-16T03:16:17.961Z,14.50
2018-08-16T03:18:47.384Z,14.60
2018-08-16T03:21:17.139Z,14.60
2018-08-16T03:23:46.698Z,14.60
2018-08-16T03:26:16.339Z,14.60
2018-08-16T03:28:46.305Z,14.60
2018-08-16T03:31:15.860Z,14.60
2018-08-16T03:33:45.279Z,14.70
2018-08-16T03:36:15.021Z,14.70
2018-08-16T03:38:44.410Z,14.70
2018-08-16T03:41:13.935Z,14.70
2018-08-16T03:43:43.700Z,14.80
2018-08-16T03:46:13.212Z,14.80
2018-08-16T03:48:42.608Z,14.80
2018-08-16T03:51:12.368Z,14.90
2018-08-16T03:53:41.791Z,14.90
2018-08-16T03:56:11.336Z,14.90
2018-08-16T03:58:40.937Z,14.90
2018-08-16T04:01:10.384Z,14.90
2018-08-16T04:03:40.047Z,14.90
2018-08-16T04:06:10.009Z,15.00
2018-08-16T04:08:39.427Z,15.00
2018-08-16T04:11:09.212Z,14.90
2018-08-16T04:13:38.891Z,14.90
2018-08-16T04:16:08.419Z,14.90
2018-08-16T04:18:37.808Z,14.90
2018-08-16T04:21:07.476Z,15.00
2018-08-16T04:23:36.954Z,15.00
2018-08-16T04:26:06.408Z,15.00
2018-08-16T04:28:36.205Z,15.00
2018-08-16T04:31:06.093Z,15.00
2018-08-16T04:33:35.537Z,15.00
2018-08-16T04:36:05.300Z,15.10
2018-08-16T04:38:34.850Z,15.10
2018-08-16T04:41:04.411Z,15.10
2018-08-16T04:43:33.918Z,15.10
2018-08-16T04:46:03.458Z,15.10
2018-08-16T04:48:32.931Z,15.20
2018-08-16T04:51:02.724Z,15.20
2018-08-16T04:53:32.183Z,15.20
2018-08-16T04:56:01.631Z,15.20
2018-08-16T04:58:31.470Z,15.30
2018-08-16T05:01:00.918Z,15.30
2018-08-16T05:03:30.248Z,15.40
2018-08-16T05:05:59.902Z,15.40
2018-08-16T05:08:29.480Z,15.40
2018-08-16T05:10:59.067Z,15.50
2018-08-16T05:13:28.838Z,15.50
2018-08-16T05:15:58.301Z,15.50
2018-08-16T05:18:27.663Z,15.60
2018-08-16T05:20:57.231Z,15.60
2018-08-16T05:23:26.627Z,15.60
2018-08-16T05:25:56.044Z,15.70
2018-08-16T05:28:25.732Z,15.70
2018-08-16T05:30:55.159Z,15.70
2018-08-16T05:33:24.845Z,15.70
2018-08-16T05:35:54.715Z,15.80
2018-08-16T05:38:24.131Z,15.80
2018-08-16T05:40:53.759Z,15.80
2018-08-16T05:43:23.758Z,15.80
2018-08-16T05:45:53.391Z,15.90
2018-08-16T05:48:23.077Z,15.90
2018-08-16T05:50:52.980Z,15.90
2018-08-16T05:53:22.537Z,16.00
2018-08-16T05:55:52.362Z,16.00
2018-08-16T05:58:22.357Z,16.00
2018-08-16T06:00:52.064Z,16.10
2018-08-16T06:03:21.785Z,16.10
2018-08-16T06:05:51.688Z,16.20
2018-08-16T06:08:21.342Z,16.20
2018-08-16T06:10:51.070Z,16.20
2018-08-16T06:13:21.114Z,16.30
2018-08-16T06:15:50.913Z,16.20
2018-08-16T06:18:20.635Z,16.30
2018-08-16T06:20:50.565Z,16.40
2018-08-16T06:23:20.184Z,16.40
2018-08-16T06:25:49.936Z,16.40
2018-08-16T06:28:19.751Z,16.40
2018-08-16T06:30:49.354Z,16.50
2018-08-16T06:33:18.840Z,16.50
2018-08-16T06:35:48.613Z,16.60
2018-08-16T06:38:18.042Z,16.60
2018-08-16T06:40:47.525Z,16.60
2018-08-16T06:43:17.143Z,16.60
2018-08-16T06:45:46.789Z,16.60
2018-08-16T06:48:16.299Z,16.70
2018-08-16T06:50:46.286Z,16.70
2018-08-16T06:53:15.966Z,16.80
2018-08-16T06:55:45.361Z,16.80
2018-08-16T06:58:15.040Z,16.80
2018-08-16T07:00:44.466Z,16.80
2018-08-16T07:03:14.106Z,16.80
2018-08-16T07:05:43.885Z,16.90
2018-08-16T07:08:13.356Z,16.90
2018-08-16T07:10:42.839Z,16.90
2018-08-16T07:13:12.357Z,16.90
2018-08-16T07:15:41.888Z,17.00
2018-08-16T07:18:11.306Z,17.00
2018-08-16T07:20:41.241Z,17.00
2018-08-16T07:23:10.776Z,17.10
2018-08-16T07:25:40.206Z,17.10
2018-08-16T07:28:10.171Z,17.20
2018-08-16T07:30:39.523Z,17.20
2018-08-16T07:33:08.989Z,17.20
2018-08-16T07:35:39.273Z,17.20
2018-08-16T07:38:09.038Z,17.30
2018-08-16T07:40:38.426Z,17.30
2018-08-16T07:43:08.201Z,17.30
2018-08-16T07:45:37.921Z,17.30
2018-08-16T07:48:07.565Z,17.40
2018-08-16T07:50:37.345Z,17.40
2018-08-16T07:53:06.888Z,17.40
2018-08-16T07:55:36.418Z,17.40
2018-08-16T07:58:06.354Z,17.40
2018-08-16T08:00:35.793Z,17.40
2018-08-16T08:03:05.325Z,17.40
2018-08-16T08:05:35.226Z,17.50
2018-08-16T08:08:04.698Z,17.50
2018-08-16T08:10:34.279Z,17.50
2018-08-16T08:13:03.857Z,17.60
2018-08-16T08:15:33.585Z,17.60
2018-08-16T08:18:03.060Z,17.70
2018-08-16T08:20:32.625Z,17.80
2018-08-16T08:23:02.264Z,17.80
2018-08-16T08:25:31.685Z,17.80
2018-08-16T08:28:01.310Z,17.90
2018-08-16T08:30:30.792Z,17.90
2018-08-16T08:33:00.255Z,17.90
2018-08-16T08:35:29.841Z,18.00
2018-08-16T08:38:02.846Z,18.10
2018-08-16T08:40:32.806Z,18.20
2018-08-16T08:43:02.361Z,18.20
2018-08-16T08:45:31.912Z,18.30
2018-08-16T08:48:01.519Z,18.40
2018-08-16T08:50:30.927Z,18.50
2018-08-16T08:53:11.398Z,18.60
2018-08-16T08:55:51.861Z,18.70
2018-08-16T08:58:32.507Z,18.80
2018-08-16T09:01:01.937Z,18.80
2018-08-16T09:03:31.473Z,18.80
2018-08-16T09:06:01.273Z,18.80
2018-08-16T09:08:30.808Z,18.80
2018-08-16T09:11:17.843Z,18.80
2018-08-16T09:14:05.491Z,18.80
2018-08-16T09:16:37.958Z,18.80
2018-08-16T09:19:08.430Z,18.80
2018-08-16T09:21:38.107Z,18.90
2018-08-16T09:24:07.655Z,19.00
2018-08-16T09:26:39.287Z,19.10
2018-08-16T09:29:19.310Z,19.20
2018-08-16T09:34:04.583Z,19.20
2018-08-16T09:36:35.563Z,19.20
2018-08-16T09:39:07.146Z,19.30
2018-08-16T09:41:37.083Z,19.30
2018-08-16T09:44:06.865Z,19.30
2018-08-16T09:47:26.034Z,19.40
2018-08-16T09:49:55.471Z,19.40
2018-08-16T09:52:25.018Z,19.40
2018-08-16T09:54:54.363Z,19.50
2018-08-16T09:57:24.135Z,19.50
2018-08-16T09:59:54.051Z,19.50
2018-08-16T10:02:23.630Z,19.60
2018-08-16T10:04:53.262Z,19.60
2018-08-16T10:07:23.306Z,19.70
2018-08-16T10:09:53.061Z,19.70
2018-08-16T10:12:22.757Z,19.80
2018-08-16T10:14:52.525Z,19.90
2018-08-16T10:17:22.234Z,20.00
2018-08-16T10:19:52.052Z,20.10
2018-08-16T10:22:21.898Z,20.20
2018-08-16T10:24:51.698Z,20.30
2018-08-16T10:27:21.424Z,20.50
2018-08-16T10:29:51.419Z,20.50
2018-08-16T10:32:21.111Z,20.60
2018-08-16T10:34:51.157Z,20.60
2018-08-16T10:37:21.189Z,20.60
2018-08-16T10:39:51.091Z,20.70
2018-08-16T10:42:20.904Z,20.70
2018-08-16T10:44:50.704Z,20.70
2018-08-16T10:47:20.401Z,20.70
2018-08-16T10:49:49.984Z,20.70
2018-08-16T10:52:19.586Z,20.80
2018-08-16T10:54:49.278Z,20.80
2018-08-16T10:57:18.696Z,20.80
2018-08-16T10:59:48.491Z,20.90
2018-08-16T11:02:18.036Z,20.90
2018-08-16T11:04:47.537Z,20.90
2018-08-16T11:07:17.495Z,21.00
2018-08-16T11:09:47.059Z,21.00
2018-08-16T11:12:16.435Z,21.10
2018-08-16T11:14:46.050Z,21.10
2018-08-16T11:17:15.401Z,21.10
2018-08-16T11:19:44.774Z,21.20
2018-08-16T11:22:14.327Z,21.30
2018-08-16T11:24:43.750Z,21.40
2018-08-16T11:27:13.215Z,21.40
2018-08-16T11:29:43.018Z,21.40
2018-08-16T11:32:12.529Z,21.40
2018-08-16T11:34:42.154Z,21.40
2018-08-16T11:37:11.976Z,21.40
2018-08-16T11:39:41.363Z,21.30
2018-08-16T11:42:10.907Z,21.40
2018-08-16T11:44:41.046Z,21.30
2018-08-16T11:47:10.418Z,21.30
2018-08-16T11:49:39.844Z,21.40
2018-08-16T11:52:09.541Z,21.50
2018-08-16T11:54:38.965Z,21.60
2018-08-16T11:57:08.406Z,21.60
2018-08-16T11:59:37.999Z,21.60
2018-08-16T12:02:07.593Z,21.60
2018-08-16T12:04:37.161Z,21.70
2018-08-16T12:07:06.792Z,21.70
2018-08-16T12:09:36.601Z,21.80
2018-08-16T12:12:06.648Z,22.00
2018-08-16T12:14:36.232Z,22.20
2018-08-16T12:17:05.868Z,22.30
2018-08-16T12:19:35.339Z,22.40
2018-08-16T12:22:05.462Z,22.60
2018-08-16T12:24:34.848Z,22.70
2018-08-16T12:27:04.333Z,22.90
2018-08-16T12:29:33.924Z,22.90
2018-08-16T12:32:03.499Z,22.90
2018-08-16T12:34:33.170Z,23.00
2018-08-16T12:37:03.211Z,22.90
2018-08-16T12:39:32.699Z,23.00
2018-08-16T12:42:02.047Z,23.00
2018-08-16T12:44:33.680Z,23.00
2018-08-16T12:47:03.318Z,23.00
2018-08-16T12:49:32.714Z,23.00
2018-08-16T12:52:02.579Z,23.00
2018-08-16T12:54:32.007Z,23.10
2018-08-16T12:57:01.519Z,23.20
2018-08-16T12:59:31.369Z,23.30
2018-08-16T13:02:00.940Z,23.40
2018-08-16T13:04:30.367Z,23.60
2018-08-16T13:07:00.233Z,23.70
2018-08-16T13:09:29.773Z,23.70
2018-08-16T13:12:11.471Z,23.70
2018-08-16T13:14:41.047Z,23.70
2018-08-16T13:17:10.663Z,23.50
2018-08-16T13:19:40.347Z,23.40
2018-08-16T13:22:09.836Z,23.30
2018-08-16T13:24:39.446Z,23.30
2018-08-16T13:27:09.050Z,23.30
2018-08-16T13:29:38.540Z,23.40
2018-08-16T13:32:08.242Z,23.40
2018-08-16T13:34:37.725Z,23.50
2018-08-16T13:37:07.526Z,23.50
2018-08-16T13:39:37.101Z,23.60
2018-08-16T13:42:08.485Z,23.60
2018-08-16T13:44:37.953Z,23.70
2018-08-16T13:47:07.785Z,23.60
2018-08-16T13:49:37.415Z,23.60
2018-08-16T13:52:07.768Z,23.50
2018-08-16T13:54:37.271Z,23.40
2018-08-16T13:57:07.135Z,23.40
2018-08-16T13:59:36.792Z,23.40
2018-08-16T14:02:06.463Z,23.40
2018-08-16T14:04:36.126Z,23.40
2018-08-16T14:07:05.921Z,23.40
2018-08-16T14:09:35.424Z,23.30
2018-08-16T14:12:05.148Z,23.30
2018-08-16T14:14:34.753Z,23.20
2018-08-16T14:17:04.314Z,23.20
2018-08-16T14:19:33.966Z,23.20
2018-08-16T14:22:13.250Z,23.20
2018-08-16T14:24:43.033Z,23.20
2018-08-16T14:27:13.585Z,23.20
2018-08-16T14:29:43.087Z,23.20
2018-08-16T14:32:12.670Z,23.30
2018-08-16T14:34:42.241Z,23.40
2018-08-16T14:37:12.008Z,23.40
2018-08-16T14:39:42.027Z,23.30
2018-08-16T14:42:11.636Z,23.30
2018-08-16T14:44:41.403Z,23.30
2018-08-16T14:47:11.478Z,23.20
2018-08-16T14:49:40.971Z,23.20
2018-08-16T14:52:10.532Z,23.10
2018-08-16T14:54:40.051Z,23.10
2018-08-16T14:57:09.754Z,23.00
2018-08-16T14:59:39.205Z,23.00
2018-08-16T15:02:09.231Z,23.00
2018-08-16T15:04:38.862Z,23.00
2018-08-16T15:07:08.282Z,23.00
2018-08-16T15:09:38.457Z,22.90
2018-08-16T15:12:08.210Z,22.80
2018-08-16T15:14:37.726Z,22.80
2018-08-16T15:17:07.641Z,22.70
2018-08-16T15:19:37.129Z,22.60
2018-08-16T15:22:06.598Z,22.60
2018-08-16T15:24:36.361Z,22.50
2018-08-16T15:27:05.899Z,22.50
2018-08-16T15:29:35.366Z,22.50
2018-08-16T15:32:05.077Z,22.40
2018-08-16T15:34:34.462Z,22.40
2018-08-16T15:37:04.013Z,22.40
2018-08-16T15:39:33.756Z,22.40
2018-08-16T15:42:03.190Z,22.30
2018-08-16T15:44:32.490Z,22.30
2018-08-16T15:47:02.255Z,22.20
2018-08-16T15:49:31.896Z,22.10
2018-08-16T15:52:01.269Z,22.10
2018-08-16T15:54:30.919Z,22.10
2018-08-16T15:57:00.535Z,22.00
2018-08-16T15:59:29.960Z,22.00
2018-08-16T16:02:00.018Z,22.00
2018-08-16T16:04:29.500Z,22.00
2018-08-16T16:06:58.911Z,21.90
2018-08-16T16:09:28.618Z,21.90
2018-08-16T16:11:59.794Z,21.90
2018-08-16T16:14:29.422Z,21.90
2018-08-16T16:16:58.858Z,21.90
2018-08-16T16:19:28.382Z,21.90
2018-08-16T16:21:58.316Z,21.90
2018-08-16T16:24:27.893Z,21.90
2018-08-16T16:26:57.378Z,21.80
2018-08-16T16:29:27.255Z,21.80
2018-08-16T16:31:56.755Z,21.80
2018-08-16T16:34:26.380Z,21.80
2018-08-16T16:36:56.567Z,21.80
2018-08-16T16:39:27.060Z,21.70
2018-08-16T16:41:56.550Z,21.70
2018-08-16T16:44:26.205Z,21.70
2018-08-16T16:46:55.638Z,21.60
2018-08-16T16:49:25.332Z,21.60
2018-08-16T16:51:56.147Z,21.60
2018-08-16T16:54:25.473Z,21.60
2018-08-16T16:56:54.980Z,21.50
2018-08-16T16:59:24.664Z,21.50
2018-08-16T17:01:54.470Z,21.50
2018-08-16T17:04:24.214Z,21.50
2018-08-16T17:06:54.372Z,21.40
2018-08-16T17:09:24.030Z,21.40
2018-08-16T17:11:53.672Z,21.50
2018-08-16T17:14:23.538Z,21.40
2018-08-16T17:16:53.528Z,21.40
2018-08-16T17:19:23.239Z,21.40
2018-08-16T17:21:53.333Z,21.40
2018-08-16T17:24:23.138Z,21.30
2018-08-16T17:26:52.715Z,21.30
2018-08-16T17:29:22.403Z,21.30
2018-08-16T17:31:52.022Z,21.20
2018-08-16T17:34:21.824Z,21.20
2018-08-16T17:36:51.891Z,21.20
2018-08-16T17:39:21.593Z,21.20
2018-08-16T17:41:51.501Z,21.10
2018-08-16T17:44:21.617Z,21.10
2018-08-16T17:46:51.215Z,21.10
2018-08-16T17:49:21.100Z,21.10
2018-08-16T17:51:51.214Z,21.10
2018-08-16T17:54:21.167Z,21.00
2018-08-16T17:56:50.650Z,21.00
2018-08-16T17:59:20.484Z,21.00
2018-08-16T18:01:50.172Z,20.90
2018-08-16T18:04:19.610Z,20.90
2018-08-16T18:06:49.483Z,20.90
2018-08-16T18:09:19.265Z,20.90
2018-08-16T18:11:49.219Z,20.80
2018-08-16T18:14:18.866Z,20.80
2018-08-16T18:16:48.342Z,20.80
2018-08-16T18:19:17.925Z,20.70
2018-08-16T18:21:47.481Z,20.70
2018-08-16T18:24:16.973Z,20.60
2018-08-16T18:26:46.601Z,20.60
2018-08-16T18:29:16.116Z,20.60
2018-08-16T18:31:45.553Z,20.50
2018-08-16T18:34:15.041Z,20.50
2018-08-16T18:36:44.577Z,20.50
2018-08-16T18:39:14.123Z,20.50
2018-08-16T18:41:43.513Z,20.50
2018-08-16T18:44:13.158Z,20.50
2018-08-16T18:46:42.707Z,20.40
2018-08-16T18:49:12.242Z,20.40
2018-08-16T18:51:41.984Z,20.40
2018-08-16T18:54:11.478Z,20.40
2018-08-16T18:56:40.933Z,20.40
2018-08-16T18:59:10.833Z,20.30
2018-08-16T19:01:40.653Z,20.30
2018-08-16T19:04:10.182Z,20.20
2018-08-16T19:06:39.948Z,20.20
2018-08-16T19:09:09.457Z,20.20
2018-08-16T19:11:38.890Z,20.20
2018-08-16T19:14:08.794Z,20.20
2018-08-16T19:16:38.311Z,20.20
2018-08-16T19:19:07.768Z,20.20
2018-08-16T19:21:37.654Z,20.10
2018-08-16T19:24:08.244Z,20.20
2018-08-16T19:26:37.579Z,20.20
2018-08-16T19:29:07.460Z,20.10
2018-08-16T19:31:37.321Z,20.10
2018-08-16T19:34:06.945Z,20.10
2018-08-16T19:36:37.173Z,20.10
2018-08-16T19:39:09.848Z,20.10
2018-08-16T19:41:39.401Z,20.10
2018-08-16T19:44:08.906Z,20.10
2018-08-16T19:46:38.277Z,20.00
2018-08-16T19:49:08.277Z,20.00
2018-08-16T19:51:37.832Z,20.00
2018-08-16T19:54:07.328Z,20.00
2018-08-16T19:56:36.888Z,20.00
2018-08-16T19:59:06.545Z,20.00
2018-08-16T20:01:36.167Z,20.00
2018-08-16T20:04:05.958Z,20.00
2018-08-16T20:06:35.388Z,20.00
2018-08-16T20:09:07.226Z,20.00
2018-08-16T20:11:36.734Z,20.00
2018-08-16T20:14:06.335Z,20.00
2018-08-16T20:16:36.212Z,20.00
2018-08-16T20:19:05.812Z,20.00
2018-08-16T20:21:35.210Z,20.00
2018-08-16T20:24:05.086Z,20.00
2018-08-16T20:26:34.720Z,20.00
2018-08-16T20:29:04.292Z,20.00
2018-08-16T20:31:34.063Z,19.90
2018-08-16T20:34:03.508Z,19.90
2018-08-16T20:36:32.968Z,19.90
2018-08-16T20:39:02.743Z,19.90
2018-08-16T20:41:32.295Z,19.90
2018-08-16T20:44:01.738Z,19.90
2018-08-16T20:46:31.309Z,19.80
2018-08-16T20:49:00.846Z,19.80
2018-08-16T20:51:30.309Z,19.80
2018-08-16T20:54:00.575Z,19.70
2018-08-16T20:56:29.993Z,19.70
2018-08-16T20:58:59.499Z,19.70
2018-08-16T21:01:29.384Z,19.70
2018-08-16T21:03:58.869Z,19.60
2018-08-16T21:06:28.468Z,19.60
2018-08-16T21:08:58.164Z,19.60
2018-08-16T21:11:27.687Z,19.50
2018-08-16T21:13:57.180Z,19.50
2018-08-16T21:16:27.019Z,19.50
2018-08-16T21:18:56.390Z,19.40
2018-08-16T21:21:25.853Z,19.40
2018-08-16T21:23:56.469Z,19.30
2018-08-16T21:26:26.080Z,19.30
2018-08-16T21:28:55.682Z,19.30
2018-08-16T21:31:25.410Z,19.30
2018-08-16T21:33:54.857Z,19.30
2018-08-16T21:36:24.980Z,19.30
2018-08-16T21:38:55.009Z,19.30
2018-08-16T21:41:24.753Z,19.20
2018-08-16T21:43:54.396Z,19.20
2018-08-16T21:46:24.524Z,19.20
2018-08-16T21:48:54.301Z,19.20
2018-08-16T21:51:24.280Z,19.10
2018-08-16T21:53:54.257Z,19.20
2018-08-16T21:56:24.839Z,19.10
2018-08-16T21:58:54.846Z,19.10
2018-08-16T22:01:25.164Z,19.10
2018-08-16T22:03:54.972Z,19.10
2018-08-16T22:06:35.636Z,19.10
2018-08-16T22:09:06.614Z,19.10
2018-08-16T22:11:36.983Z,19.10
2018-08-16T22:14:06.495Z,19.10
2018-08-16T22:16:35.946Z,19.10
2018-08-16T22:19:05.955Z,19.10
2018-08-16T22:21:35.475Z,19.10
2018-08-16T22:24:04.956Z,19.10
2018-08-16T22:26:35.090Z,19.00
2018-08-16T22:29:04.477Z,19.00
2018-08-16T22:31:34.032Z,19.00
2018-08-16T22:34:03.950Z,19.00
2018-08-16T22:36:33.354Z,19.00
2018-08-16T22:39:03.093Z,19.00
2018-08-16T22:41:32.899Z,19.00
2018-08-16T22:44:03.327Z,19.00
2018-08-16T22:46:32.784Z,19.00
2018-08-16T22:49:02.445Z,19.00
2018-08-16T22:51:31.927Z,19.00
2018-08-16T22:54:01.464Z,19.00
2018-08-16T22:56:31.233Z,19.00
2018-08-16T22:59:00.664Z,19.00
2018-08-16T23:01:30.111Z,19.00
2018-08-16T23:03:59.724Z,19.00
2018-08-16T23:06:29.078Z,19.00
2018-08-16T23:08:58.595Z,19.00
2018-08-16T23:11:28.357Z,19.00
2018-08-16T23:13:57.892Z,19.00
2018-08-16T23:16:27.304Z,19.00
2018-08-16T23:18:57.222Z,19.00
2018-08-16T23:21:26.644Z,19.00
2018-08-16T23:23:56.030Z,19.00
2018-08-16T23:26:25.782Z,19.00
2018-08-16T23:28:55.441Z,19.00
2018-08-16T23:31:24.950Z,19.00
2018-08-16T23:33:55.018Z,19.00
2018-08-16T23:36:24.821Z,19.00
2018-08-16T23:38:54.367Z,19.00
2018-08-16T23:41:24.522Z,19.10
2018-08-16T23:43:54.347Z,19.10
2018-08-16T23:46:24.120Z,19.10
2018-08-16T23:48:54.548Z,19.10
2018-08-16T23:51:24.394Z,19.10
2018-08-16T23:53:54.050Z,19.10
2018-08-16T23:56:23.925Z,19.10
2018-08-16T23:58:53.438Z,19.10
